sensor_id;sensor_type;location;lat;lon;timestamp;P1;durP1;ratioP1;P2;durP2;ratioP2
3643;SDS011;1838;50.742;7.158;2024-01-25T00:02:21;43.80;;;9.60;;
3643;SDS011;1838;50.742;7.158;2024-01-25T00:04:47;36.27;;;7.37;;
3643;SDS011;1838;50.742;7.158;2024-01-25T00:07:12;47.60;;;9.53;;
3643;SDS011;1838;50.742;7.158;2024-01-25T00:09:38;41.77;;;10.80;;
3643;SDS011;1838;50.742;7.158;2024-01-25T00:12:04;41.10;;;7.67;;
3643;SDS011;1838;50.742;7.158;2024-01-25T00:14:29;60.00;;;11.10;;
3643;SDS011;1838;50.742;7.158;2024-01-25T00:16:55;42.60;;;10.00;;
3643;SDS011;1838;50.742;7.158;2024-01-25T00:19:20;37.83;;;9.20;;
3643;SDS011;1838;50.742;7.158;2024-01-25T00:21:46;46.17;;;9.47;;
3643;SDS011;1838;50.742;7.158;2024-01-25T00:24:12;33.33;;;9.03;;
3643;SDS011;1838;50.742;7.158;2024-01-25T00:26:37;35.80;;;9.27;;
3643;SDS011;1838;50.742;7.158;2024-01-25T00:29:03;39.27;;;7.53;;
3643;SDS011;1838;50.742;7.158;2024-01-25T00:31:29;36.93;;;8.70;;
3643;SDS011;1838;50.742;7.158;2024-01-25T00:33:55;46.10;;;9.07;;
3643;SDS011;1838;50.742;7.158;2024-01-25T00:36:22;29.40;;;8.00;;
3643;SDS011;1838;50.742;7.158;2024-01-25T00:38:48;30.97;;;8.57;;
3643;SDS011;1838;50.742;7.158;2024-01-25T00:41:15;42.23;;;8.87;;
3643;SDS011;1838;50.742;7.158;2024-01-25T00:43:44;55.47;;;10.30;;
3643;SDS011;1838;50.742;7.158;2024-01-25T00:46:10;46.83;;;9.80;;
3643;SDS011;1838;50.742;7.158;2024-01-25T00:48:35;43.87;;;12.60;;
3643;SDS011;1838;50.742;7.158;2024-01-25T00:51:01;51.80;;;8.23;;
3643;SDS011;1838;50.742;7.158;2024-01-25T00:53:31;45.70;;;10.43;;
3643;SDS011;1838;50.742;7.158;2024-01-25T00:55:57;25.33;;;7.60;;
3643;SDS011;1838;50.742;7.158;2024-01-25T00:58:23;39.63;;;10.37;;
3643;SDS011;1838;50.742;7.158;2024-01-25T01:00:49;44.23;;;8.73;;
3643;SDS011;1838;50.742;7.158;2024-01-25T01:03:15;32.53;;;8.80;;
3643;SDS011;1838;50.742;7.158;2024-01-25T01:05:45;40.10;;;8.63;;
3643;SDS011;1838;50.742;7.158;2024-01-25T01:08:11;44.87;;;9.80;;
3643;SDS011;1838;50.742;7.158;2024-01-25T01:10:37;50.27;;;9.70;;
3643;SDS011;1838;50.742;7.158;2024-01-25T01:13:02;40.43;;;7.87;;
3643;SDS011;1838;50.742;7.158;2024-01-25T01:15:28;47.60;;;10.13;;
3643;SDS011;1838;50.742;7.158;2024-01-25T01:17:54;59.23;;;9.53;;
3643;SDS011;1838;50.742;7.158;2024-01-25T01:20:19;36.03;;;9.27;;
3643;SDS011;1838;50.742;7.158;2024-01-25T01:22:45;52.90;;;10.10;;
3643;SDS011;1838;50.742;7.158;2024-01-25T01:25:10;47.13;;;10.07;;
3643;SDS011;1838;50.742;7.158;2024-01-25T01:27:36;62.17;;;10.23;;
3643;SDS011;1838;50.742;7.158;2024-01-25T01:30:01;39.57;;;8.63;;
3643;SDS011;1838;50.742;7.158;2024-01-25T01:32:27;51.07;;;9.93;;
3643;SDS011;1838;50.742;7.158;2024-01-25T01:34:53;52.83;;;9.93;;
3643;SDS011;1838;50.742;7.158;2024-01-25T01:37:18;47.93;;;8.90;;
3643;SDS011;1838;50.742;7.158;2024-01-25T01:39:44;51.47;;;9.37;;
3643;SDS011;1838;50.742;7.158;2024-01-25T01:42:09;41.30;;;8.70;;
3643;SDS011;1838;50.742;7.158;2024-01-25T01:44:35;48.80;;;9.57;;
3643;SDS011;1838;50.742;7.158;2024-01-25T01:47:00;41.50;;;10.13;;
3643;SDS011;1838;50.742;7.158;2024-01-25T01:49:26;40.03;;;9.60;;
3643;SDS011;1838;50.742;7.158;2024-01-25T01:51:52;43.23;;;7.50;;
3643;SDS011;1838;50.742;7.158;2024-01-25T01:54:18;59.93;;;10.80;;
3643;SDS011;1838;50.742;7.158;2024-01-25T01:56:43;60.80;;;9.80;;
3643;SDS011;1838;50.742;7.158;2024-01-25T01:59:10;46.00;;;9.10;;
3643;SDS011;1838;50.742;7.158;2024-01-25T02:01:36;44.73;;;9.93;;
3643;SDS011;1838;50.742;7.158;2024-01-25T02:04:03;33.80;;;7.80;;
3643;SDS011;1838;50.742;7.158;2024-01-25T02:06:29;48.70;;;9.90;;
3643;SDS011;1838;50.742;7.158;2024-01-25T02:08:55;43.73;;;8.70;;
3643;SDS011;1838;50.742;7.158;2024-01-25T02:11:23;36.57;;;7.93;;
3643;SDS011;1838;50.742;7.158;2024-01-25T02:13:49;42.40;;;7.80;;
3643;SDS011;1838;50.742;7.158;2024-01-25T02:16:15;50.53;;;9.60;;
3643;SDS011;1838;50.742;7.158;2024-01-25T02:18:41;62.80;;;9.83;;
3643;SDS011;1838;50.742;7.158;2024-01-25T02:21:07;36.30;;;8.23;;
3643;SDS011;1838;50.742;7.158;2024-01-25T02:23:32;31.93;;;8.77;;
3643;SDS011;1838;50.742;7.158;2024-01-25T02:25:58;40.90;;;7.30;;
3643;SDS011;1838;50.742;7.158;2024-01-25T02:28:23;60.17;;;7.80;;
3643;SDS011;1838;50.742;7.158;2024-01-25T02:30:49;45.27;;;8.63;;
3643;SDS011;1838;50.742;7.158;2024-01-25T02:33:15;53.90;;;11.77;;
3643;SDS011;1838;50.742;7.158;2024-01-25T02:35:40;47.60;;;8.80;;
3643;SDS011;1838;50.742;7.158;2024-01-25T02:38:06;60.33;;;9.77;;
3643;SDS011;1838;50.742;7.158;2024-01-25T02:40:32;37.67;;;7.43;;
3643;SDS011;1838;50.742;7.158;2024-01-25T02:42:57;45.60;;;8.20;;
3643;SDS011;1838;50.742;7.158;2024-01-25T02:45:23;43.93;;;8.70;;
3643;SDS011;1838;50.742;7.158;2024-01-25T02:47:49;35.33;;;8.20;;
3643;SDS011;1838;50.742;7.158;2024-01-25T02:50:15;39.20;;;8.00;;
3643;SDS011;1838;50.742;7.158;2024-01-25T02:52:40;31.20;;;8.30;;
3643;SDS011;1838;50.742;7.158;2024-01-25T02:55:06;40.53;;;8.47;;
3643;SDS011;1838;50.742;7.158;2024-01-25T02:57:32;47.20;;;9.50;;
3643;SDS011;1838;50.742;7.158;2024-01-25T02:59:57;51.87;;;9.70;;
3643;SDS011;1838;50.742;7.158;2024-01-25T03:02:23;40.27;;;8.83;;
3643;SDS011;1838;50.742;7.158;2024-01-25T03:04:49;44.40;;;9.60;;
3643;SDS011;1838;50.742;7.158;2024-01-25T03:07:14;53.10;;;8.77;;
3643;SDS011;1838;50.742;7.158;2024-01-25T03:09:40;39.97;;;8.33;;
3643;SDS011;1838;50.742;7.158;2024-01-25T03:12:24;34.36;;;8.53;;
3643;SDS011;1838;50.742;7.158;2024-01-25T03:14:49;44.40;;;9.83;;
3643;SDS011;1838;50.742;7.158;2024-01-25T03:17:15;33.53;;;7.27;;
3643;SDS011;1838;50.742;7.158;2024-01-25T03:19:40;50.37;;;9.00;;
3643;SDS011;1838;50.742;7.158;2024-01-25T03:22:06;36.03;;;8.50;;
3643;SDS011;1838;50.742;7.158;2024-01-25T03:24:31;60.77;;;9.70;;
3643;SDS011;1838;50.742;7.158;2024-01-25T03:26:57;48.13;;;8.80;;
3643;SDS011;1838;50.742;7.158;2024-01-25T03:29:23;56.80;;;12.03;;
3643;SDS011;1838;50.742;7.158;2024-01-25T03:31:48;40.27;;;8.80;;
3643;SDS011;1838;50.742;7.158;2024-01-25T03:34:15;67.70;;;9.37;;
3643;SDS011;1838;50.742;7.158;2024-01-25T03:36:40;47.90;;;10.53;;
3643;SDS011;1838;50.742;7.158;2024-01-25T03:39:07;59.50;;;9.40;;
3643;SDS011;1838;50.742;7.158;2024-01-25T03:41:33;43.33;;;9.30;;
3643;SDS011;1838;50.742;7.158;2024-01-25T03:43:58;56.50;;;9.87;;
3643;SDS011;1838;50.742;7.158;2024-01-25T03:46:24;43.33;;;8.87;;
3643;SDS011;1838;50.742;7.158;2024-01-25T03:48:49;55.50;;;10.57;;
3643;SDS011;1838;50.742;7.158;2024-01-25T03:51:15;51.27;;;9.90;;
3643;SDS011;1838;50.742;7.158;2024-01-25T03:53:41;47.30;;;9.10;;
3643;SDS011;1838;50.742;7.158;2024-01-25T03:56:13;50.80;;;9.97;;
3643;SDS011;1838;50.742;7.158;2024-01-25T03:58:42;54.37;;;9.87;;
3643;SDS011;1838;50.742;7.158;2024-01-25T04:01:08;58.40;;;9.57;;
3643;SDS011;1838;50.742;7.158;2024-01-25T04:03:34;70.03;;;11.10;;
3643;SDS011;1838;50.742;7.158;2024-01-25T04:05:59;59.23;;;10.57;;
3643;SDS011;1838;50.742;7.158;2024-01-25T04:08:25;46.83;;;10.53;;
3643;SDS011;1838;50.742;7.158;2024-01-25T04:10:50;56.97;;;11.20;;
3643;SDS011;1838;50.742;7.158;2024-01-25T04:13:16;37.90;;;7.90;;
3643;SDS011;1838;50.742;7.158;2024-01-25T04:15:41;64.87;;;11.80;;
3643;SDS011;1838;50.742;7.158;2024-01-25T04:18:07;42.57;;;9.17;;
3643;SDS011;1838;50.742;7.158;2024-01-25T04:20:32;52.10;;;10.43;;
3643;SDS011;1838;50.742;7.158;2024-01-25T04:22:59;59.10;;;10.20;;
3643;SDS011;1838;50.742;7.158;2024-01-25T04:25:24;60.20;;;11.97;;
3643;SDS011;1838;50.742;7.158;2024-01-25T04:27:50;45.33;;;8.70;;
3643;SDS011;1838;50.742;7.158;2024-01-25T04:30:16;40.33;;;8.90;;
3643;SDS011;1838;50.742;7.158;2024-01-25T04:32:41;52.70;;;9.67;;
3643;SDS011;1838;50.742;7.158;2024-01-25T04:35:08;45.73;;;10.83;;
3643;SDS011;1838;50.742;7.158;2024-01-25T04:37:34;57.23;;;10.43;;
3643;SDS011;1838;50.742;7.158;2024-01-25T04:39:59;38.73;;;9.23;;
3643;SDS011;1838;50.742;7.158;2024-01-25T04:42:25;67.30;;;10.40;;
3643;SDS011;1838;50.742;7.158;2024-01-25T04:44:52;60.33;;;9.70;;
3643;SDS011;1838;50.742;7.158;2024-01-25T04:47:18;51.57;;;11.00;;
3643;SDS011;1838;50.742;7.158;2024-01-25T04:49:44;45.40;;;9.80;;
3643;SDS011;1838;50.742;7.158;2024-01-25T04:52:09;55.40;;;10.90;;
3643;SDS011;1838;50.742;7.158;2024-01-25T04:54:35;54.23;;;10.93;;
3643;SDS011;1838;50.742;7.158;2024-01-25T04:57:00;42.77;;;9.50;;
3643;SDS011;1838;50.742;7.158;2024-01-25T04:59:27;53.67;;;9.50;;
3643;SDS011;1838;50.742;7.158;2024-01-25T05:01:52;47.83;;;9.70;;
3643;SDS011;1838;50.742;7.158;2024-01-25T05:04:20;58.20;;;12.10;;
3643;SDS011;1838;50.742;7.158;2024-01-25T05:06:45;61.40;;;11.70;;
3643;SDS011;1838;50.742;7.158;2024-01-25T05:09:11;53.97;;;11.00;;
3643;SDS011;1838;50.742;7.158;2024-01-25T05:11:39;52.00;;;10.70;;
3643;SDS011;1838;50.742;7.158;2024-01-25T05:14:05;106.57;;;13.00;;
3643;SDS011;1838;50.742;7.158;2024-01-25T05:16:31;42.40;;;9.97;;
3643;SDS011;1838;50.742;7.158;2024-01-25T05:18:57;51.00;;;9.60;;
3643;SDS011;1838;50.742;7.158;2024-01-25T05:21:22;47.08;;;9.48;;
3643;SDS011;1838;50.742;7.158;2024-01-25T05:23:48;49.73;;;10.00;;
3643;SDS011;1838;50.742;7.158;2024-01-25T05:26:13;37.47;;;9.23;;
3643;SDS011;1838;50.742;7.158;2024-01-25T05:28:40;51.23;;;10.77;;
3643;SDS011;1838;50.742;7.158;2024-01-25T05:31:05;42.27;;;8.97;;
3643;SDS011;1838;50.742;7.158;2024-01-25T05:33:37;50.33;;;10.93;;
3643;SDS011;1838;50.742;7.158;2024-01-25T05:36:06;49.90;;;9.13;;
3643;SDS011;1838;50.742;7.158;2024-01-25T05:38:31;51.87;;;11.60;;
3643;SDS011;1838;50.742;7.158;2024-01-25T05:40:57;48.83;;;11.03;;
3643;SDS011;1838;50.742;7.158;2024-01-25T05:43:23;49.83;;;10.70;;
3643;SDS011;1838;50.742;7.158;2024-01-25T05:45:48;44.63;;;8.87;;
3643;SDS011;1838;50.742;7.158;2024-01-25T05:48:14;61.67;;;10.10;;
3643;SDS011;1838;50.742;7.158;2024-01-25T05:50:40;41.83;;;10.00;;
3643;SDS011;1838;50.742;7.158;2024-01-25T05:53:15;41.62;;;9.70;;
3643;SDS011;1838;50.742;7.158;2024-01-25T05:55:44;47.13;;;9.20;;
3643;SDS011;1838;50.742;7.158;2024-01-25T05:58:09;63.27;;;12.40;;
3643;SDS011;1838;50.742;7.158;2024-01-25T06:00:35;42.00;;;9.30;;
3643;SDS011;1838;50.742;7.158;2024-01-25T06:03:00;41.70;;;9.70;;
3643;SDS011;1838;50.742;7.158;2024-01-25T06:05:26;59.87;;;11.20;;
3643;SDS011;1838;50.742;7.158;2024-01-25T06:07:51;45.97;;;10.17;;
3643;SDS011;1838;50.742;7.158;2024-01-25T06:10:17;43.80;;;8.63;;
3643;SDS011;1838;50.742;7.158;2024-01-25T06:12:42;41.47;;;9.40;;
3643;SDS011;1838;50.742;7.158;2024-01-25T06:15:08;55.07;;;8.40;;
3643;SDS011;1838;50.742;7.158;2024-01-25T06:17:34;52.83;;;9.17;;
3643;SDS011;1838;50.742;7.158;2024-01-25T06:19:59;52.40;;;10.77;;
3643;SDS011;1838;50.742;7.158;2024-01-25T06:22:25;43.10;;;8.30;;
3643;SDS011;1838;50.742;7.158;2024-01-25T06:24:50;34.03;;;9.07;;
3643;SDS011;1838;50.742;7.158;2024-01-25T06:27:16;39.43;;;10.37;;
3643;SDS011;1838;50.742;7.158;2024-01-25T06:29:41;32.10;;;8.33;;
3643;SDS011;1838;50.742;7.158;2024-01-25T06:32:07;42.93;;;8.87;;
3643;SDS011;1838;50.742;7.158;2024-01-25T06:34:32;36.37;;;9.33;;
3643;SDS011;1838;50.742;7.158;2024-01-25T06:36:58;52.03;;;10.03;;
3643;SDS011;1838;50.742;7.158;2024-01-25T06:39:23;38.53;;;9.20;;
3643;SDS011;1838;50.742;7.158;2024-01-25T06:41:49;29.10;;;8.13;;
3643;SDS011;1838;50.742;7.158;2024-01-25T06:44:15;41.50;;;10.07;;
3643;SDS011;1838;50.742;7.158;2024-01-25T06:46:42;52.20;;;9.97;;
3643;SDS011;1838;50.742;7.158;2024-01-25T06:49:07;29.20;;;9.23;;
3643;SDS011;1838;50.742;7.158;2024-01-25T06:51:33;40.53;;;10.53;;
3643;SDS011;1838;50.742;7.158;2024-01-25T06:53:59;46.90;;;11.50;;
3643;SDS011;1838;50.742;7.158;2024-01-25T06:56:24;54.33;;;10.50;;
3643;SDS011;1838;50.742;7.158;2024-01-25T06:58:50;40.23;;;9.53;;
3643;SDS011;1838;50.742;7.158;2024-01-25T07:01:22;33.70;;;8.80;;
3643;SDS011;1838;50.742;7.158;2024-01-25T07:03:48;50.47;;;9.37;;
3643;SDS011;1838;50.742;7.158;2024-01-25T07:06:15;46.17;;;10.23;;
3643;SDS011;1838;50.742;7.158;2024-01-25T07:08:42;59.17;;;10.20;;
3643;SDS011;1838;50.742;7.158;2024-01-25T07:11:08;52.63;;;9.60;;
3643;SDS011;1838;50.742;7.158;2024-01-25T07:13:33;30.07;;;8.30;;
3643;SDS011;1838;50.742;7.158;2024-01-25T07:15:59;32.27;;;9.03;;
3643;SDS011;1838;50.742;7.158;2024-01-25T07:18:24;44.50;;;10.27;;
3643;SDS011;1838;50.742;7.158;2024-01-25T07:20:50;43.37;;;8.70;;
3643;SDS011;1838;50.742;7.158;2024-01-25T07:23:16;41.20;;;10.07;;
3643;SDS011;1838;50.742;7.158;2024-01-25T07:25:42;35.70;;;8.87;;
3643;SDS011;1838;50.742;7.158;2024-01-25T07:28:08;41.77;;;8.67;;
3643;SDS011;1838;50.742;7.158;2024-01-25T07:30:33;39.27;;;8.63;;
3643;SDS011;1838;50.742;7.158;2024-01-25T07:32:59;40.73;;;9.00;;
3643;SDS011;1838;50.742;7.158;2024-01-25T07:35:25;49.77;;;10.30;;
3643;SDS011;1838;50.742;7.158;2024-01-25T07:37:50;41.23;;;9.63;;
3643;SDS011;1838;50.742;7.158;2024-01-25T07:40:16;36.43;;;10.80;;
3643;SDS011;1838;50.742;7.158;2024-01-25T07:42:41;45.10;;;8.80;;
3643;SDS011;1838;50.742;7.158;2024-01-25T07:45:07;56.40;;;10.27;;
3643;SDS011;1838;50.742;7.158;2024-01-25T07:47:33;45.00;;;9.80;;
3643;SDS011;1838;50.742;7.158;2024-01-25T07:49:59;28.83;;;8.33;;
3643;SDS011;1838;50.742;7.158;2024-01-25T07:52:25;64.80;;;9.90;;
3643;SDS011;1838;50.742;7.158;2024-01-25T07:54:51;45.40;;;9.47;;
3643;SDS011;1838;50.742;7.158;2024-01-25T07:57:18;42.57;;;9.03;;
3643;SDS011;1838;50.742;7.158;2024-01-25T07:59:44;59.00;;;11.03;;
3643;SDS011;1838;50.742;7.158;2024-01-25T08:02:10;34.57;;;9.77;;
3643;SDS011;1838;50.742;7.158;2024-01-25T08:04:35;39.33;;;10.30;;
3643;SDS011;1838;50.742;7.158;2024-01-25T08:07:01;33.13;;;9.20;;
3643;SDS011;1838;50.742;7.158;2024-01-25T08:09:27;58.23;;;11.00;;
3643;SDS011;1838;50.742;7.158;2024-01-25T08:11:53;47.40;;;10.93;;
3643;SDS011;1838;50.742;7.158;2024-01-25T08:14:18;50.07;;;9.37;;
3643;SDS011;1838;50.742;7.158;2024-01-25T08:16:44;40.37;;;10.40;;
3643;SDS011;1838;50.742;7.158;2024-01-25T08:19:09;69.90;;;11.40;;
3643;SDS011;1838;50.742;7.158;2024-01-25T08:21:35;36.10;;;10.53;;
3643;SDS011;1838;50.742;7.158;2024-01-25T08:24:01;50.03;;;9.97;;
3643;SDS011;1838;50.742;7.158;2024-01-25T08:26:27;43.83;;;10.03;;
3643;SDS011;1838;50.742;7.158;2024-01-25T08:28:53;50.50;;;11.13;;
3643;SDS011;1838;50.742;7.158;2024-01-25T08:31:18;30.53;;;9.97;;
3643;SDS011;1838;50.742;7.158;2024-01-25T08:33:44;45.37;;;9.40;;
3643;SDS011;1838;50.742;7.158;2024-01-25T08:36:12;57.20;;;11.70;;
3643;SDS011;1838;50.742;7.158;2024-01-25T08:38:38;63.50;;;11.00;;
3643;SDS011;1838;50.742;7.158;2024-01-25T08:41:04;43.60;;;9.60;;
3643;SDS011;1838;50.742;7.158;2024-01-25T08:43:29;38.33;;;9.60;;
3643;SDS011;1838;50.742;7.158;2024-01-25T08:45:55;38.27;;;10.53;;
3643;SDS011;1838;50.742;7.158;2024-01-25T08:48:20;30.70;;;10.70;;
3643;SDS011;1838;50.742;7.158;2024-01-25T08:50:46;40.43;;;10.00;;
3643;SDS011;1838;50.742;7.158;2024-01-25T08:53:11;62.80;;;10.20;;
3643;SDS011;1838;50.742;7.158;2024-01-25T08:55:37;28.57;;;8.93;;
3643;SDS011;1838;50.742;7.158;2024-01-25T08:58:03;39.37;;;10.07;;
3643;SDS011;1838;50.742;7.158;2024-01-25T09:00:29;37.20;;;11.70;;
3643;SDS011;1838;50.742;7.158;2024-01-25T09:02:54;39.83;;;11.50;;
3643;SDS011;1838;50.742;7.158;2024-01-25T09:05:20;36.90;;;10.47;;
3643;SDS011;1838;50.742;7.158;2024-01-25T09:07:45;34.27;;;9.40;;
3643;SDS011;1838;50.742;7.158;2024-01-25T09:10:12;35.53;;;9.50;;
3643;SDS011;1838;50.742;7.158;2024-01-25T09:12:38;34.63;;;9.80;;
3643;SDS011;1838;50.742;7.158;2024-01-25T09:15:04;39.17;;;10.10;;
3643;SDS011;1838;50.742;7.158;2024-01-25T09:17:30;38.50;;;9.60;;
3643;SDS011;1838;50.742;7.158;2024-01-25T09:19:55;42.60;;;9.43;;
3643;SDS011;1838;50.742;7.158;2024-01-25T09:22:24;38.23;;;10.10;;
3643;SDS011;1838;50.742;7.158;2024-01-25T09:24:49;52.03;;;10.33;;
3643;SDS011;1838;50.742;7.158;2024-01-25T09:27:15;45.63;;;11.60;;
3643;SDS011;1838;50.742;7.158;2024-01-25T09:29:41;38.57;;;9.63;;
3643;SDS011;1838;50.742;7.158;2024-01-25T09:32:07;50.27;;;10.07;;
3643;SDS011;1838;50.742;7.158;2024-01-25T09:34:34;44.33;;;9.30;;
3643;SDS011;1838;50.742;7.158;2024-01-25T09:36:59;43.13;;;9.80;;
3643;SDS011;1838;50.742;7.158;2024-01-25T09:39:25;30.97;;;7.83;;
3643;SDS011;1838;50.742;7.158;2024-01-25T09:41:50;35.33;;;9.30;;
3643;SDS011;1838;50.742;7.158;2024-01-25T09:44:16;42.27;;;9.43;;
3643;SDS011;1838;50.742;7.158;2024-01-25T09:46:42;33.93;;;9.27;;
3643;SDS011;1838;50.742;7.158;2024-01-25T09:49:10;35.27;;;10.17;;
3643;SDS011;1838;50.742;7.158;2024-01-25T09:51:37;29.23;;;8.67;;
3643;SDS011;1838;50.742;7.158;2024-01-25T09:54:04;40.57;;;10.63;;
3643;SDS011;1838;50.742;7.158;2024-01-25T09:56:31;45.80;;;10.10;;
3643;SDS011;1838;50.742;7.158;2024-01-25T09:58:57;33.93;;;9.57;;
3643;SDS011;1838;50.742;7.158;2024-01-25T10:01:23;41.80;;;11.30;;
3643;SDS011;1838;50.742;7.158;2024-01-25T10:03:49;38.57;;;10.27;;
3643;SDS011;1838;50.742;7.158;2024-01-25T10:06:15;37.70;;;8.63;;
3643;SDS011;1838;50.742;7.158;2024-01-25T10:08:41;45.47;;;9.50;;
3643;SDS011;1838;50.742;7.158;2024-01-25T10:11:07;37.93;;;9.10;;
3643;SDS011;1838;50.742;7.158;2024-01-25T10:13:39;32.77;;;8.80;;
3643;SDS011;1838;50.742;7.158;2024-01-25T10:16:06;36.80;;;8.77;;
3643;SDS011;1838;50.742;7.158;2024-01-25T10:18:35;31.23;;;9.00;;
3643;SDS011;1838;50.742;7.158;2024-01-25T10:21:01;39.57;;;8.90;;
3643;SDS011;1838;50.742;7.158;2024-01-25T10:23:28;43.83;;;9.07;;
3643;SDS011;1838;50.742;7.158;2024-01-25T10:25:53;33.33;;;8.57;;
3643;SDS011;1838;50.742;7.158;2024-01-25T10:28:21;56.20;;;9.27;;
3643;SDS011;1838;50.742;7.158;2024-01-25T10:30:50;34.63;;;8.27;;
3643;SDS011;1838;50.742;7.158;2024-01-25T10:33:16;30.70;;;8.63;;
3643;SDS011;1838;50.742;7.158;2024-01-25T10:35:42;34.77;;;7.27;;
3643;SDS011;1838;50.742;7.158;2024-01-25T10:38:14;48.97;;;8.60;;
3643;SDS011;1838;50.742;7.158;2024-01-25T10:40:42;41.77;;;8.83;;
3643;SDS011;1838;50.742;7.158;2024-01-25T10:43:09;31.90;;;9.30;;
3643;SDS011;1838;50.742;7.158;2024-01-25T10:45:34;31.83;;;8.93;;
3643;SDS011;1838;50.742;7.158;2024-01-25T10:48:00;31.27;;;8.73;;
3643;SDS011;1838;50.742;7.158;2024-01-25T10:50:26;27.17;;;7.97;;
3643;SDS011;1838;50.742;7.158;2024-01-25T10:52:51;24.23;;;8.27;;
3643;SDS011;1838;50.742;7.158;2024-01-25T10:55:17;31.33;;;8.03;;
3643;SDS011;1838;50.742;7.158;2024-01-25T10:57:44;31.27;;;8.30;;
3643;SDS011;1838;50.742;7.158;2024-01-25T11:00:11;26.53;;;8.47;;
3643;SDS011;1838;50.742;7.158;2024-01-25T11:02:41;42.40;;;8.57;;
3643;SDS011;1838;50.742;7.158;2024-01-25T11:05:16;25.53;;;7.93;;
3643;SDS011;1838;50.742;7.158;2024-01-25T11:07:44;30.07;;;7.53;;
3643;SDS011;1838;50.742;7.158;2024-01-25T11:10:17;48.30;;;7.70;;
3643;SDS011;1838;50.742;7.158;2024-01-25T11:15:20;34.60;;;7.00;;
3643;SDS011;1838;50.742;7.158;2024-01-25T11:17:50;26.10;;;7.13;;
3643;SDS011;1838;50.742;7.158;2024-01-25T11:20:19;25.60;;;6.80;;
3643;SDS011;1838;50.742;7.158;2024-01-25T11:22:46;49.60;;;9.30;;
3643;SDS011;1838;50.742;7.158;2024-01-25T11:25:13;38.40;;;8.43;;
3643;SDS011;1838;50.742;7.158;2024-01-25T11:27:42;33.63;;;7.47;;
3643;SDS011;1838;50.742;7.158;2024-01-25T11:30:08;26.23;;;7.87;;
3643;SDS011;1838;50.742;7.158;2024-01-25T11:32:34;31.00;;;7.00;;
3643;SDS011;1838;50.742;7.158;2024-01-25T11:35:00;40.53;;;8.07;;
3643;SDS011;1838;50.742;7.158;2024-01-25T11:37:26;30.23;;;7.50;;
3643;SDS011;1838;50.742;7.158;2024-01-25T11:39:51;31.90;;;7.17;;
3643;SDS011;1838;50.742;7.158;2024-01-25T11:42:17;31.57;;;6.40;;
3643;SDS011;1838;50.742;7.158;2024-01-25T11:44:43;28.87;;;6.40;;
3643;SDS011;1838;50.742;7.158;2024-01-25T11:47:08;34.57;;;7.67;;
3643;SDS011;1838;50.742;7.158;2024-01-25T11:49:34;21.57;;;6.43;;
3643;SDS011;1838;50.742;7.158;2024-01-25T11:52:00;33.80;;;6.50;;
3643;SDS011;1838;50.742;7.158;2024-01-25T11:54:27;24.17;;;6.80;;
3643;SDS011;1838;50.742;7.158;2024-01-25T11:56:52;22.27;;;5.70;;
3643;SDS011;1838;50.742;7.158;2024-01-25T11:59:18;26.17;;;5.67;;
3643;SDS011;1838;50.742;7.158;2024-01-25T12:01:44;30.73;;;7.37;;
3643;SDS011;1838;50.742;7.158;2024-01-25T12:04:10;18.97;;;5.87;;
3643;SDS011;1838;50.742;7.158;2024-01-25T12:06:35;36.67;;;8.17;;
3643;SDS011;1838;50.742;7.158;2024-01-25T12:09:10;32.43;;;7.03;;
3643;SDS011;1838;50.742;7.158;2024-01-25T12:11:38;21.00;;;6.63;;
3643;SDS011;1838;50.742;7.158;2024-01-25T12:14:05;24.23;;;5.37;;
3643;SDS011;1838;50.742;7.158;2024-01-25T12:16:33;31.40;;;5.37;;
3643;SDS011;1838;50.742;7.158;2024-01-25T12:18:59;22.43;;;6.60;;
3643;SDS011;1838;50.742;7.158;2024-01-25T12:21:24;24.93;;;6.90;;
3643;SDS011;1838;50.742;7.158;2024-01-25T12:23:50;21.60;;;5.40;;
3643;SDS011;1838;50.742;7.158;2024-01-25T12:26:16;16.30;;;4.43;;
3643;SDS011;1838;50.742;7.158;2024-01-25T12:28:42;14.07;;;5.27;;
3643;SDS011;1838;50.742;7.158;2024-01-25T12:31:08;29.03;;;6.73;;
3643;SDS011;1838;50.742;7.158;2024-01-25T12:33:34;29.93;;;6.30;;
3643;SDS011;1838;50.742;7.158;2024-01-25T12:36:01;23.03;;;6.00;;
3643;SDS011;1838;50.742;7.158;2024-01-25T12:38:27;23.63;;;6.17;;
3643;SDS011;1838;50.742;7.158;2024-01-25T12:40:54;20.40;;;5.30;;
3643;SDS011;1838;50.742;7.158;2024-01-25T12:43:23;22.10;;;6.50;;
3643;SDS011;1838;50.742;7.158;2024-01-25T12:45:49;17.93;;;5.73;;
3643;SDS011;1838;50.742;7.158;2024-01-25T12:48:15;24.30;;;6.60;;
3643;SDS011;1838;50.742;7.158;2024-01-25T12:50:40;23.43;;;6.30;;
3643;SDS011;1838;50.742;7.158;2024-01-25T12:53:06;13.97;;;5.07;;
3643;SDS011;1838;50.742;7.158;2024-01-25T12:55:34;23.03;;;6.50;;
3643;SDS011;1838;50.742;7.158;2024-01-25T12:58:00;31.70;;;6.40;;
3643;SDS011;1838;50.742;7.158;2024-01-25T13:00:26;21.67;;;5.80;;
3643;SDS011;1838;50.742;7.158;2024-01-25T13:02:51;30.53;;;6.20;;
3643;SDS011;1838;50.742;7.158;2024-01-25T13:05:19;23.10;;;6.40;;
3643;SDS011;1838;50.742;7.158;2024-01-25T13:07:44;23.73;;;5.90;;
3643;SDS011;1838;50.742;7.158;2024-01-25T13:10:10;29.80;;;6.70;;
3643;SDS011;1838;50.742;7.158;2024-01-25T13:12:36;26.13;;;7.33;;
3643;SDS011;1838;50.742;7.158;2024-01-25T13:15:02;26.07;;;6.10;;
3643;SDS011;1838;50.742;7.158;2024-01-25T13:17:28;19.47;;;6.83;;
3643;SDS011;1838;50.742;7.158;2024-01-25T13:19:55;19.53;;;5.20;;
3643;SDS011;1838;50.742;7.158;2024-01-25T13:22:22;26.10;;;6.00;;
3643;SDS011;1838;50.742;7.158;2024-01-25T13:24:49;23.63;;;5.90;;
3643;SDS011;1838;50.742;7.158;2024-01-25T13:27:15;27.30;;;6.13;;
3643;SDS011;1838;50.742;7.158;2024-01-25T13:29:40;26.60;;;6.13;;
3643;SDS011;1838;50.742;7.158;2024-01-25T13:32:07;31.07;;;5.77;;
3643;SDS011;1838;50.742;7.158;2024-01-25T13:34:33;27.47;;;5.87;;
3643;SDS011;1838;50.742;7.158;2024-01-25T13:36:58;23.83;;;5.50;;
3643;SDS011;1838;50.742;7.158;2024-01-25T13:39:24;30.20;;;7.03;;
3643;SDS011;1838;50.742;7.158;2024-01-25T13:41:50;25.13;;;6.37;;
3643;SDS011;1838;50.742;7.158;2024-01-25T13:44:16;22.80;;;6.00;;
3643;SDS011;1838;50.742;7.158;2024-01-25T13:46:42;21.40;;;5.50;;
3643;SDS011;1838;50.742;7.158;2024-01-25T13:49:07;19.90;;;5.53;;
3643;SDS011;1838;50.742;7.158;2024-01-25T13:51:32;28.67;;;6.10;;
3643;SDS011;1838;50.742;7.158;2024-01-25T13:53:58;20.13;;;6.00;;
3643;SDS011;1838;50.742;7.158;2024-01-25T13:56:24;22.83;;;5.53;;
3643;SDS011;1838;50.742;7.158;2024-01-25T13:58:49;28.07;;;5.87;;
3643;SDS011;1838;50.742;7.158;2024-01-25T14:01:16;36.50;;;6.57;;
3643;SDS011;1838;50.742;7.158;2024-01-25T14:03:41;27.83;;;5.10;;
3643;SDS011;1838;50.742;7.158;2024-01-25T14:06:07;26.63;;;6.57;;
3643;SDS011;1838;50.742;7.158;2024-01-25T14:08:34;23.60;;;6.40;;
3643;SDS011;1838;50.742;7.158;2024-01-25T14:11:01;30.03;;;6.20;;
3643;SDS011;1838;50.742;7.158;2024-01-25T14:13:26;28.73;;;6.53;;
3643;SDS011;1838;50.742;7.158;2024-01-25T14:15:52;24.33;;;5.97;;
3643;SDS011;1838;50.742;7.158;2024-01-25T14:18:17;26.80;;;6.90;;
3643;SDS011;1838;50.742;7.158;2024-01-25T14:20:43;30.57;;;6.63;;
3643;SDS011;1838;50.742;7.158;2024-01-25T14:23:09;30.23;;;5.90;;
3643;SDS011;1838;50.742;7.158;2024-01-25T14:25:34;30.93;;;7.27;;
3643;SDS011;1838;50.742;7.158;2024-01-25T14:28:00;23.00;;;6.40;;
3643;SDS011;1838;50.742;7.158;2024-01-25T14:30:25;22.67;;;5.30;;
3643;SDS011;1838;50.742;7.158;2024-01-25T14:32:51;23.40;;;6.53;;
3643;SDS011;1838;50.742;7.158;2024-01-25T14:35:16;29.73;;;6.93;;
3643;SDS011;1838;50.742;7.158;2024-01-25T14:37:42;32.27;;;6.43;;
3643;SDS011;1838;50.742;7.158;2024-01-25T14:40:07;22.23;;;6.63;;
3643;SDS011;1838;50.742;7.158;2024-01-25T14:42:33;27.43;;;8.00;;
3643;SDS011;1838;50.742;7.158;2024-01-25T14:44:59;22.10;;;6.47;;
3643;SDS011;1838;50.742;7.158;2024-01-25T14:47:24;25.50;;;6.90;;
3643;SDS011;1838;50.742;7.158;2024-01-25T14:49:50;27.20;;;6.50;;
3643;SDS011;1838;50.742;7.158;2024-01-25T14:52:17;24.53;;;7.33;;
3643;SDS011;1838;50.742;7.158;2024-01-25T14:54:43;19.50;;;5.97;;